Time;durP1;ratioP1;P1;durP2;ratioP2;P2;SDS_P1;SDS_P2;PMS_P1;PMS_P2;Temp;Humidity;BMP_temperature;BMP_pressure;BME280_temperature;BME280_humidity;BME280_pressure;Samples;Min_cycle;Max_cycle;Signal;HPM_P1;HPM_P2
2021/04/23 00:01:23;;;;;;;5.15;2.60;;;;;;;13.95;42.03;100167.69;4959503;28;20027;-70
2021/04/23 00:03:52;;;;;;;4.22;2.42;;;;;;;13.96;42.03;100163.00;4957969;28;20020;-69
2021/04/23 00:06:24;;;;;;;5.05;2.42;;;;;;;13.99;41.99;100171.41;4953784;28;20034;-69
2021/04/23 00:09:23;;;;;;;4.75;2.55;;;;;;;13.97;42.04;100175.59;4955159;28;20393;-69
2021/04/23 00:11:55;;;;;;;4.97;2.80;;;;;;;13.87;42.22;100178.53;4932058;28;20040;-69
2021/04/23 00:14:24;;;;;;;4.32;2.65;;;;;;;13.83;42.30;100173.69;4954053;28;20019;-69
2021/04/23 00:16:50;;;;;;;5.38;2.80;;;;;;;13.82;42.43;100171.22;4956699;28;20039;-69
2021/04/23 00:19:20;;;;;;;4.80;2.83;;;;;;;13.80;42.38;100173.50;4952823;28;20038;-70
2021/04/23 00:21:45;;;;;;;4.10;3.00;;;;;;;13.77;42.41;100174.88;4956063;28;20019;-70
2021/04/23 00:24:12;;;;;;;4.03;2.75;;;;;;;13.77;42.50;100174.09;4950874;28;20023;-69
2021/04/23 00:26:41;;;;;;;4.95;2.83;;;;;;;13.76;42.68;100183.41;4956618;28;20039;-69
2021/04/23 00:29:07;;;;;;;5.70;2.72;;;;;;;13.72;42.70;100171.47;4959447;28;20043;-69
2021/04/23 00:31:33;;;;;;;4.30;2.45;;;;;;;13.72;42.57;100176.94;4957145;28;20034;-69
2021/04/23 00:33:58;;;;;;;4.00;2.70;;;;;;;13.69;42.63;100170.94;4952009;28;20019;-69
2021/04/23 00:36:24;;;;;;;4.28;2.67;;;;;;;13.66;42.75;100174.28;4952986;28;20112;-69
2021/04/23 00:38:50;;;;;;;3.58;2.67;;;;;;;13.65;42.81;100166.38;4959594;28;20027;-69
2021/04/23 00:41:21;;;;;;;4.65;2.80;;;;;;;13.63;42.68;100174.91;4956545;28;20444;-70
2021/04/23 00:43:57;;;;;;;6.57;2.80;;;;;;;13.60;42.65;100170.03;4954278;28;20014;-69
2021/04/23 00:46:24;;;;;;;6.85;2.50;;;;;;;13.47;42.83;100157.16;4959056;28;20456;-69
2021/04/23 00:48:49;;;;;;;5.10;2.60;;;;;;;13.54;42.97;100172.06;4958891;28;20570;-69
2021/04/23 00:51:22;;;;;;;5.22;2.80;;;;;;;13.50;43.09;100168.31;4949550;28;20473;-69
2021/04/23 00:53:51;;;;;;;2.60;2.28;;;;;;;13.47;43.19;100157.16;4950521;28;20023;-70
2021/04/23 00:56:19;;;;;;;4.97;2.92;;;;;;;13.45;43.41;100167.59;4955679;28;20710;-69
2021/04/23 00:58:46;;;;;;;4.57;3.28;;;;;;;13.37;43.65;100166.34;4956490;28;20016;-69
2021/04/23 01:01:21;;;;;;;4.20;2.70;;;;;;;13.26;44.00;100159.44;4953943;28;20030;-69
2021/04/23 01:03:47;;;;;;;3.58;3.10;;;;;;;13.15;44.08;100164.28;4957598;28;20015;-69
2021/04/23 01:06:19;;;;;;;4.30;3.40;;;;;;;13.06;44.57;100172.38;4952417;28;20041;-69
2021/04/23 01:08:46;;;;;;;3.50;2.83;;;;;;;12.91;44.47;100154.28;4952760;29;20030;-68
2021/04/23 01:11:12;;;;;;;6.85;2.88;;;;;;;12.98;44.48;100167.59;4953096;29;20063;-69
2021/04/23 01:13:38;;;;;;;5.32;3.00;;;;;;;12.90;44.94;100163.59;4955077;28;20111;-69
2021/04/23 01:16:08;;;;;;;3.70;2.55;;;;;;;12.94;44.89;100164.66;4958171;28;20031;-69
2021/04/23 01:18:35;;;;;;;5.82;3.05;;;;;;;12.92;44.83;100166.88;4956336;28;20057;-69
2021/04/23 01:21:24;;;;;;;3.53;2.97;;;;;;;12.93;45.16;100173.97;4946895;28;20038;-69
2021/04/23 01:23:52;;;;;;;3.97;3.08;;;;;;;12.90;45.28;100174.56;4959849;28;20042;-69
2021/04/23 01:26:20;;;;;;;5.85;3.13;;;;;;;12.88;45.08;100165.84;4958320;28;20027;-69
2021/04/23 01:28:48;;;;;;;4.80;3.05;;;;;;;12.85;45.19;100172.72;4960704;28;20043;-69
2021/04/23 01:31:16;;;;;;;4.32;3.40;;;;;;;12.85;45.50;100169.19;4957411;28;20079;-68
2021/04/23 01:33:44;;;;;;;5.20;3.10;;;;;;;12.86;45.31;100168.06;4953648;28;20027;-68
2021/04/23 01:36:12;;;;;;;4.78;3.40;;;;;;;12.84;45.55;100168.38;4961704;28;20055;-68
2021/04/23 01:38:39;;;;;;;4.15;3.25;;;;;;;12.85;45.44;100167.25;4961371;28;20051;-68
2021/04/23 01:41:05;;;;;;;5.95;3.40;;;;;;;12.85;45.64;100177.38;4961457;28;20035;-69
2021/04/23 01:43:32;;;;;;;4.00;3.20;;;;;;;12.84;45.45;100171.13;4961106;28;20091;-69
2021/04/23 01:45:58;;;;;;;5.95;3.05;;;;;;;12.82;45.69;100165.13;4964281;28;20023;-69
2021/04/23 01:48:23;;;;;;;3.90;2.85;;;;;;;12.74;45.70;100158.41;4961951;28;20027;-69
2021/04/23 01:50:49;;;;;;;3.72;3.00;;;;;;;12.81;45.56;100168.16;4960836;28;20035;-69
2021/04/23 01:53:15;;;;;;;4.35;2.63;;;;;;;12.74;45.65;100158.41;4968925;28;20050;-68
2021/04/23 01:55:41;;;;;;;3.80;2.50;;;;;;;12.61;45.38;100140.03;4961445;28;20026;-68
2021/04/23 01:58:07;;;;;;;5.15;2.67;;;;;;;12.72;45.64;100157.06;4964209;28;20095;-68
2021/04/23 02:00:37;;;;;;;6.63;2.60;;;;;;;12.69;45.48;100158.50;4960589;28;20185;-69
2021/04/23 02:03:06;;;;;;;4.00;2.60;;;;;;;12.65;45.28;100154.72;4960969;28;20031;-69
2021/04/23 02:05:32;;;;;;;3.50;2.80;;;;;;;12.65;45.58;100160.19;4961317;28;20027;-69
2021/04/23 02:07:58;;;;;;;5.60;2.72;;;;;;;12.59;45.71;100164.13;4972174;28;20118;-69
2021/04/23 02:10:31;;;;;;;5.03;2.92;;;;;;;12.57;45.70;100161.69;4960701;28;20059;-69
2021/04/23 02:12:57;;;;;;;4.57;3.00;;;;;;;12.37;45.82;100138.22;4960131;28;20035;-68
2021/04/23 02:15:24;;;;;;;5.65;3.03;;;;;;;12.46;46.22;100154.75;4960451;28;20029;-69
2021/04/23 02:17:50;;;;;;;3.67;2.60;;;;;;;12.36;46.33;100142.06;4960247;28;20027;-68
2021/04/23 02:20:26;;;;;;;3.72;2.70;;;;;;;12.49;46.25;100165.09;4960315;28;20027;-68
2021/04/23 02:22:53;;;;;;;4.72;3.00;;;;;;;12.47;46.42;100167.31;4959210;28;20023;-69
2021/04/23 02:25:21;;;;;;;3.53;2.92;;;;;;;12.45;46.73;100172.25;4963261;28;20091;-69
2021/04/23 02:27:47;;;;;;;4.20;2.63;;;;;;;12.41;46.73;100157.56;4959851;28;20035;-69
2021/04/23 02:30:17;;;;;;;6.40;2.97;;;;;;;12.39;46.54;100167.97;4956887;29;20038;-69
2021/04/23 02:32:43;;;;;;;5.82;3.05;;;;;;;12.21;46.66;100142.28;4959712;28;20078;-69
2021/04/23 02:35:12;;;;;;;3.53;2.92;;;;;;;12.32;47.06;100170.28;4960205;28;20035;-69
2021/04/23 02:37:38;;;;;;;4.20;2.70;;;;;;;12.28;46.94;100176.31;4967803;28;20031;-69
2021/04/23 02:40:07;;;;;;;3.20;2.90;;;;;;;12.24;47.16;100175.31;4959417;28;20095;-69
2021/04/23 02:42:33;;;;;;;3.35;2.80;;;;;;;12.21;47.28;100175.09;4950030;29;20579;-69
2021/04/23 02:44:58;;;;;;;7.50;3.30;;;;;;;12.14;47.67;100158.25;4959350;28;20019;-69
2021/04/23 02:47:24;;;;;;;4.05;3.30;;;;;;;12.20;47.61;100173.44;4962983;28;20042;-69
2021/04/23 02:49:49;;;;;;;5.45;3.38;;;;;;;12.18;47.48;100165.56;4961981;28;20031;-70
2021/04/23 02:52:16;;;;;;;3.40;3.10;;;;;;;12.17;47.80;100171.28;4964536;28;20034;-68
2021/04/23 02:54:41;;;;;;;4.05;3.28;;;;;;;12.14;47.92;100169.16;4971595;28;20031;-69
2021/04/23 02:57:07;;;;;;;4.40;3.55;;;;;;;12.07;47.84;100158.59;4964217;28;20026;-69
2021/04/23 02:59:32;;;;;;;4.45;3.60;;;;;;;12.05;47.96;100160.81;4966335;28;20539;-69
2021/04/23 03:01:58;;;;;;;4.22;3.45;;;;;;;12.03;48.27;100166.56;4958325;28;20074;-69
2021/04/23 03:04:26;;;;;;;3.88;3.47;;;;;;;11.99;48.40;100160.06;4959927;28;20063;-69
2021/04/23 03:06:51;;;;;;;4.38;3.35;;;;;;;11.96;48.53;100157.91;4969342;28;20058;-69
2021/04/23 03:09:17;;;;;;;4.18;3.45;;;;;;;11.86;48.59;100153.34;4959743;28;20031;-69
2021/04/23 03:11:43;;;;;;;4.70;3.70;;;;;;;11.93;48.32;100163.94;4959392;28;20027;-69
2021/04/23 03:14:09;;;;;;;5.72;3.60;;;;;;;11.88;48.63;100156.63;4959127;28;20113;-69
2021/04/23 03:16:39;;;;;;;5.03;3.85;;;;;;;11.88;48.73;100162.06;4957701;28;20505;-69
2021/04/23 03:19:11;;;;;;;4.05;3.42;;;;;;;11.81;49.07;100150.69;4957749;28;20118;-69
2021/04/23 03:21:36;;;;;;;5.13;3.88;;;;;;;11.69;48.90;100134.75;4959872;28;20043;-69
2021/04/23 03:24:02;;;;;;;5.15;3.97;;;;;;;11.77;48.93;100149.69;4961243;28;20054;-70
2021/04/23 03:26:28;;;;;;;4.82;3.70;;;;;;;11.74;49.14;100158.44;4962407;28;20503;-69
2021/04/23 03:28:53;;;;;;;4.40;4.00;;;;;;;11.69;49.20;100156.59;4959096;28;20516;-69
2021/04/23 03:31:19;;;;;;;6.10;4.03;;;;;;;11.65;49.17;100161.81;4959637;28;20062;-69
2021/04/23 03:33:45;;;;;;;4.60;3.95;;;;;;;11.62;49.59;100164.31;4958942;28;20456;-69
2021/04/23 03:36:12;;;;;;;4.95;3.90;;;;;;;11.60;49.56;100169.25;4963520;28;20482;-69
2021/04/23 03:38:41;;;;;;;6.07;4.28;;;;;;;11.57;49.33;100167.13;4958566;28;20031;-69
2021/04/23 03:41:14;;;;;;;6.35;4.43;;;;;;;11.52;49.67;100167.16;4958905;28;20031;-69
2021/04/23 03:43:40;;;;;;;5.35;3.78;;;;;;;11.49;49.46;100165.84;4958302;29;20081;-68
2021/04/23 03:46:06;;;;;;;5.65;3.83;;;;;;;11.38;49.69;100172.50;4961428;28;20035;-69
2021/04/23 03:48:33;;;;;;;6.10;3.83;;;;;;;11.34;49.88;100172.25;4958981;28;20035;-69
2021/04/23 03:50:59;;;;;;;6.75;4.40;;;;;;;11.22;50.08;100150.03;4958842;28;20031;-69
2021/04/23 03:53:25;;;;;;;5.03;3.72;;;;;;;11.34;50.25;100173.09;4968396;28;20551;-69
2021/04/23 03:55:52;;;;;;;6.13;3.97;;;;;;;11.34;50.23;100166.81;4963097;28;20492;-69
2021/04/23 03:58:20;;;;;;;4.72;4.28;;;;;;;11.34;50.02;100164.06;4966243;28;20110;-69
2021/04/23 04:00:53;;;;;;;4.57;4.18;;;;;;;11.33;49.99;100170.63;4958788;28;20027;-69
2021/04/23 04:03:20;;;;;;;5.00;3.72;;;;;;;11.30;50.19;100166.56;4959022;28;20115;-68
2021/04/23 04:05:46;;;;;;;6.25;4.03;;;;;;;11.26;50.24;100173.72;4963828;28;20037;-69
2021/04/23 04:08:12;;;;;;;5.20;4.22;;;;;;;11.26;50.15;100168.28;4963877;28;20480;-69
2021/04/23 04:10:38;;;;;;;6.68;4.47;;;;;;;11.10;50.38;100153.16;4958461;28;20511;-68
2021/04/23 04:13:05;;;;;;;5.60;4.60;;;;;;;10.72;50.24;100101.94;4957956;28;20042;-69
2021/04/23 04:15:31;;;;;;;4.45;3.92;;;;;;;11.21;50.51;100168.31;4960410;28;20436;-68
2021/04/23 04:17:57;;;;;;;7.20;4.13;;;;;;;11.15;50.48;100175.75;4959174;28;20038;-69
2021/04/23 04:20:24;;;;;;;5.32;4.18;;;;;;;11.18;50.30;100186.06;4957606;28;20062;-69
2021/04/23 04:22:50;;;;;;;5.82;4.72;;;;;;;11.17;50.77;100187.16;4957641;28;20063;-69
2021/04/23 04:25:28;;;;;;;8.63;4.40;;;;;;;11.16;50.64;100180.06;4958048;28;20078;-69
2021/04/23 04:27:55;;;;;;;5.50;4.47;;;;;;;11.13;50.99;100182.56;4956674;28;20047;-69
2021/04/23 04:30:21;;;;;;;6.85;4.45;;;;;;;11.01;51.16;100169.31;4957882;28;20027;-69
2021/04/23 04:32:47;;;;;;;5.57;4.40;;;;;;;11.10;50.94;100180.44;4958157;28;20055;-69
2021/04/23 04:35:13;;;;;;;4.82;4.20;;;;;;;11.08;51.07;100180.69;4958435;28;20031;-69
2021/04/23 04:37:39;;;;;;;4.68;4.18;;;;;;;11.07;50.86;100183.72;4958944;28;20528;-69
2021/04/23 04:40:07;;;;;;;6.80;4.53;;;;;;;11.06;51.14;100182.09;4958021;28;20492;-69
2021/04/23 04:42:33;;;;;;;10.95;4.30;;;;;;;10.99;51.16;100172.34;4957443;28;20023;-69
2021/04/23 04:45:01;;;;;;;5.78;4.05;;;;;;;11.01;50.82;100181.06;4958134;28;20065;-69
2021/04/23 04:47:31;;;;;;;5.03;3.75;;;;;;;10.82;51.45;100161.03;4958752;28;20038;-69
2021/04/23 04:49:58;;;;;;;6.38;4.18;;;;;;;10.94;51.00;100177.03;4960960;28;20038;-68
2021/04/23 04:52:24;;;;;;;7.35;4.07;;;;;;;10.98;50.94;100197.19;4957708;28;20523;-69
2021/04/23 04:54:50;;;;;;;5.80;4.20;;;;;;;10.95;51.24;100193.09;4957651;28;20050;-69
2021/04/23 04:57:15;;;;;;;6.35;4.75;;;;;;;10.86;51.50;100190.19;4957844;28;20098;-68
2021/04/23 04:59:50;;;;;;;5.78;4.55;;;;;;;10.94;51.34;100210.59;4958095;28;20042;-69
2021/04/23 05:02:16;;;;;;;4.95;4.38;;;;;;;10.91;51.35;100208.41;4957743;28;20548;-69
2021/04/23 05:04:42;;;;;;;6.47;4.07;;;;;;;10.92;51.62;100201.03;4958019;28;20055;-69
2021/04/23 05:07:08;;;;;;;5.78;4.43;;;;;;;10.88;51.75;100202.72;4957174;28;20400;-69
2021/04/23 05:09:34;;;;;;;4.82;4.20;;;;;;;10.92;51.46;100217.41;4958414;28;20385;-69
2021/04/23 05:11:59;;;;;;;4.68;4.10;;;;;;;10.91;51.74;100211.16;4957253;28;20067;-69
2021/04/23 05:14:25;;;;;;;7.20;4.32;;;;;;;10.90;51.85;100208.72;4957584;28;20476;-69
2021/04/23 05:16:51;;;;;;;5.07;4.25;;;;;;;10.89;51.55;100213.34;4957050;28;20023;-69
2021/04/23 05:19:18;;;;;;;7.03;4.35;;;;;;;10.89;51.77;100215.25;4961003;28;20055;-69
2021/04/23 05:21:43;;;;;;;6.50;4.28;;;;;;;10.89;52.19;100218.78;4957871;28;20035;-69
2021/04/23 05:24:09;;;;;;;7.45;4.53;;;;;;;10.89;52.01;100218.00;4960758;28;20045;-69
2021/04/23 05:26:35;;;;;;;5.80;4.20;;;;;;;10.89;52.22;100226.16;4957090;28;20083;-69
2021/04/23 05:29:00;;;;;;;7.75;4.13;;;;;;;10.88;52.23;100217.16;4957423;28;20070;-69
2021/04/23 05:31:26;;;;;;;4.70;4.20;;;;;;;10.89;52.11;100221.53;4957818;28;20034;-69
2021/04/23 05:33:51;;;;;;;6.65;4.45;;;;;;;10.90;52.22;100228.59;4957154;28;20043;-69
2021/04/23 05:36:16;;;;;;;7.00;4.35;;;;;;;10.90;52.28;100225.88;4961772;28;20027;-69
2021/04/23 05:38:42;;;;;;;6.95;4.68;;;;;;;10.89;52.27;100223.44;4957416;28;20090;-69
2021/04/23 05:41:08;;;;;;;5.15;4.40;;;;;;;10.89;52.14;100229.69;4957435;28;20031;-69
2021/04/23 05:43:33;;;;;;;5.38;4.60;;;;;;;10.75;52.21;100204.97;4956891;29;20035;-69
2021/04/23 05:45:58;;;;;;;5.65;4.43;;;;;;;10.81;52.34;100222.97;4958772;28;20035;-69
2021/04/23 05:48:24;;;;;;;5.30;4.55;;;;;;;10.91;52.35;100234.91;4956926;28;20034;-69
2021/04/23 05:50:49;;;;;;;9.77;5.22;;;;;;;10.69;52.19;100190.59;4957427;28;20031;-69
2021/04/23 05:53:15;;;;;;;6.03;4.78;;;;;;;10.92;52.29;100239.22;4957835;28;20039;-69
2021/04/23 05:55:41;;;;;;;10.70;4.55;;;;;;;10.94;52.32;100237.03;4958266;28;20043;-69
2021/04/23 05:58:07;;;;;;;6.18;4.28;;;;;;;10.97;52.23;100236.47;4957109;28;20023;-69
2021/04/23 06:00:35;;;;;;;5.47;4.43;;;;;;;10.98;52.20;100236.19;4956966;28;20035;-69
2021/04/23 06:03:03;;;;;;;7.03;4.60;;;;;;;11.01;52.28;100235.63;4957171;28;20031;-69
2021/04/23 06:05:29;;;;;;;6.90;4.00;;;;;;;11.00;52.42;100234.00;4960225;28;20043;-69
2021/04/23 06:07:59;;;;;;;6.28;4.07;;;;;;;11.06;52.63;100237.50;4957950;28;20031;-69
2021/04/23 06:10:25;;;;;;;6.38;4.13;;;;;;;11.09;52.25;100238.84;4956991;28;20042;-69
2021/04/23 06:12:52;;;;;;;7.28;4.55;;;;;;;11.13;52.17;100246.16;4955408;28;20031;-69
2021/04/23 06:15:18;;;;;;;5.70;4.18;;;;;;;11.17;52.07;100240.94;4960866;28;20026;-69
2021/04/23 06:17:44;;;;;;;11.05;4.60;;;;;;;11.21;52.05;100249.38;4957000;28;20110;-69
2021/04/23 06:20:14;;;;;;;6.32;4.18;;;;;;;11.26;52.01;100244.69;4959139;28;20070;-68
2021/04/23 06:22:40;;;;;;;4.25;3.85;;;;;;;11.31;51.67;100247.38;4960395;28;20034;-69
2021/04/23 06:25:08;;;;;;;7.05;4.10;;;;;;;11.34;51.63;100241.34;4962054;28;20035;-69
2021/04/23 06:27:34;;;;;;;5.47;4.15;;;;;;;11.22;51.66;100221.78;4959873;28;20500;-69
2021/04/23 06:29:59;;;;;;;7.55;3.95;;;;;;;11.47;51.63;100253.50;4960572;28;20538;-69
2021/04/23 06:32:24;;;;;;;5.30;4.28;;;;;;;11.49;51.49;100245.81;4959497;28;20076;-69
2021/04/23 06:34:50;;;;;;;4.78;3.83;;;;;;;11.54;51.28;100246.88;4961300;28;20031;-69
2021/04/23 06:37:15;;;;;;;6.18;4.03;;;;;;;11.62;51.23;100254.44;4964810;28;20579;-69
2021/04/23 06:39:41;;;;;;;7.15;4.30;;;;;;;11.65;51.02;100246.47;4959480;28;20035;-69
2021/04/23 06:42:06;;;;;;;6.07;3.83;;;;;;;11.71;51.14;100243.69;4959950;28;20023;-69
2021/04/23 06:44:32;;;;;;;5.65;3.90;;;;;;;11.74;51.18;100245.84;4959771;28;20035;-69
2021/04/23 06:46:57;;;;;;;6.70;3.95;;;;;;;11.80;51.25;100247.41;4960433;28;20031;-69
2021/04/23 06:49:22;;;;;;;7.07;4.63;;;;;;;11.84;51.35;100248.47;4959694;28;20039;-69
2021/04/23 06:51:48;;;;;;;5.30;4.10;;;;;;;11.84;50.93;100237.56;4959143;28;20031;-70
2021/04/23 06:54:14;;;;;;;8.25;4.00;;;;;;;11.94;50.99;100245.59;4960780;28;20027;-69
2021/04/23 06:56:40;;;;;;;4.97;4.00;;;;;;;11.83;50.96;100225.00;4960102;28;20035;-69
2021/04/23 06:59:05;;;;;;;6.32;3.55;;;;;;;12.06;50.64;100247.16;4959805;28;20031;-67
2021/04/23 07:01:31;;;;;;;5.05;3.90;;;;;;;12.12;50.22;100248.72;4961196;28;20027;-71
2021/04/23 07:03:57;;;;;;;4.00;3.60;;;;;;;12.18;50.16;100249.47;4960051;28;20027;-69
2021/04/23 07:06:22;;;;;;;23.50;15.40;;;;;;;12.23;49.96;100250.22;4965775;28;20031;-70
2021/04/23 07:08:48;;;;;;;6.95;4.20;;;;;;;12.18;49.90;100246.72;4959390;28;20046;-70
2021/04/23 07:11:16;;;;;;;5.47;3.90;;;;;;;12.34;49.92;100247.34;4959955;28;20476;-69
2021/04/23 07:13:41;;;;;;;4.65;3.65;;;;;;;12.39;49.70;100250.84;4959310;28;20023;-69
2021/04/23 07:16:07;;;;;;;9.98;3.40;;;;;;;12.45;49.46;100248.81;4959477;28;20057;-69
2021/04/23 07:18:32;;;;;;;4.70;3.63;;;;;;;12.50;49.38;100259.72;4958575;28;20115;-69
2021/04/23 07:20:57;;;;;;;5.45;3.40;;;;;;;12.56;49.34;100252.25;4958577;28;20023;-69
2021/04/23 07:23:23;;;;;;;6.85;3.60;;;;;;;12.58;49.36;100255.47;4959523;28;20034;-69
2021/04/23 07:25:49;;;;;;;4.47;3.30;;;;;;;12.68;49.08;100249.06;4967984;28;20037;-70
2021/04/23 07:28:14;;;;;;;5.65;3.20;;;;;;;12.73;49.08;100257.19;4963941;28;20456;-69
2021/04/23 07:30:40;;;;;;;8.35;3.28;;;;;;;12.82;48.81;100257.31;4959284;28;20034;-69
2021/04/23 07:33:09;;;;;;;4.13;3.15;;;;;;;12.87;48.63;100249.06;4959075;28;20033;-69
2021/04/23 07:35:35;;;;;;;4.35;2.97;;;;;;;12.91;48.55;100241.84;4963890;28;20033;-70
2021/04/23 07:38:01;;;;;;;5.63;3.20;;;;;;;12.99;48.12;100249.38;4961353;28;20062;-69
2021/04/23 07:40:27;;;;;;;5.10;3.20;;;;;;;13.09;48.13;100251.16;4958798;28;20260;-69
2021/04/23 07:42:52;;;;;;;4.38;3.30;;;;;;;13.14;48.35;100253.81;4959314;28;20430;-69
2021/04/23 07:45:19;;;;;;;8.27;3.42;;;;;;;13.22;48.18;100244.91;4961491;28;20043;-70
2021/04/23 07:47:45;;;;;;;4.72;3.08;;;;;;;13.30;48.04;100248.06;4958920;28;20085;-69
2021/04/23 07:50:17;;;;;;;7.95;3.78;;;;;;;13.38;47.97;100245.50;4959472;28;20415;-69
2021/04/23 07:52:43;;;;;;;5.30;3.13;;;;;;;13.41;47.56;100248.72;4963008;28;20400;-69
2021/04/23 07:55:10;;;;;;;7.32;4.00;;;;;;;13.47;47.90;100244.81;4974234;28;20404;-69
2021/04/23 07:57:36;;;;;;;6.65;3.78;;;;;;;13.52;48.13;100239.22;4946436;28;20031;-70
2021/04/23 08:00:06;;;;;;;10.15;4.07;;;;;;;13.62;48.30;100243.69;4958983;28;20034;-70
2021/04/23 08:02:31;;;;;;;6.05;3.60;;;;;;;13.67;48.16;100241.69;4959207;28;20031;-70
2021/04/23 08:04:56;;;;;;;7.85;3.97;;;;;;;13.76;48.15;100244.50;4959042;28;20031;-69
2021/04/23 08:07:22;;;;;;;10.70;3.53;;;;;;;13.84;47.84;100237.53;4958768;28;20023;-70
2021/04/23 08:09:47;;;;;;;10.18;3.75;;;;;;;13.84;47.77;100223.81;4957718;28;20511;-70
2021/04/23 08:12:13;;;;;;;6.50;3.35;;;;;;;13.97;47.67;100244.13;4960681;28;20083;-70
2021/04/23 08:14:38;;;;;;;10.15;6.05;;;;;;;14.05;47.68;100234.38;4957413;28;20131;-70
2021/04/23 08:17:03;;;;;;;8.43;3.83;;;;;;;14.08;47.94;100239.22;4958270;28;20020;-70
2021/04/23 08:19:29;;;;;;;16.50;3.67;;;;;;;14.21;47.84;100235.69;4958858;28;20206;-70
2021/04/23 08:21:54;;;;;;;5.82;3.38;;;;;;;14.30;47.89;100242.03;4958684;28;20026;-70
2021/04/23 08:24:20;;;;;;;6.72;3.42;;;;;;;14.35;47.48;100232.09;4958561;28;21157;-70
2021/04/23 08:26:46;;;;;;;11.10;3.35;;;;;;;14.43;47.34;100239.59;4958239;28;20023;-71
2021/04/23 08:29:12;;;;;;;8.23;2.90;;;;;;;14.51;47.64;100233.38;4958059;28;20308;-70
2021/04/23 08:31:39;;;;;;;6.88;2.88;;;;;;;14.57;47.63;100223.91;4957285;28;20031;-70
2021/04/23 08:34:05;;;;;;;3.65;2.75;;;;;;;14.65;47.31;100233.34;4958642;28;20020;-70
2021/04/23 08:36:31;;;;;;;7.20;3.03;;;;;;;14.72;47.41;100231.00;4971430;28;20077;-71
2021/04/23 08:38:57;;;;;;;6.82;2.70;;;;;;;14.66;47.27;100204.81;4958244;28;20027;-70
2021/04/23 08:41:22;;;;;;;5.03;2.78;;;;;;;14.85;47.25;100223.00;4958139;28;20129;-70
2021/04/23 08:43:48;;;;;;;13.38;8.00;;;;;;;14.86;47.62;100211.75;4958068;28;20423;-70
2021/04/23 08:46:13;;;;;;;6.18;3.28;;;;;;;14.90;47.74;100212.72;4957353;28;20392;-70
2021/04/23 08:48:40;;;;;;;7.03;2.70;;;;;;;14.98;47.86;100196.63;4955058;28;20031;-72
2021/04/23 08:51:08;;;;;;;5.22;2.75;;;;;;;15.22;48.18;100226.50;4957362;28;20496;-72
2021/04/23 08:53:33;;;;;;;6.95;2.85;;;;;;;15.31;48.00;100215.56;4963120;28;20027;-72
2021/04/23 08:55:59;;;;;;;7.15;2.80;;;;;;;15.36;47.64;100218.97;4957280;28;20111;-71
2021/04/23 08:58:25;;;;;;;4.15;2.63;;;;;;;15.42;47.73;100219.66;4957246;28;20031;-70
2021/04/23 09:00:51;;;;;;;4.80;2.50;;;;;;;15.49;47.73;100228.25;4957890;28;20059;-70
2021/04/23 09:03:19;;;;;;;5.65;2.90;;;;;;;15.38;47.39;100192.00;4957707;28;20058;-71
2021/04/23 09:06:07;;;;;;;5.43;3.00;;;;;;;15.66;46.96;100212.97;4957768;28;20034;-70
2021/04/23 09:08:36;;;;;;;5.20;2.70;;;;;;;15.67;46.46;100198.91;4957434;28;20027;-71
2021/04/23 09:11:19;;;;;;;10.20;2.92;;;;;;;15.82;46.21;100203.16;4956682;28;20053;-72
2021/04/23 09:13:50;;;;;;;8.35;2.80;;;;;;;15.83;46.91;100180.06;4960766;28;20090;-70
2021/04/23 09:16:17;;;;;;;4.50;2.38;;;;;;;15.88;46.22;100182.66;4957587;28;20392;-71
2021/04/23 09:18:43;;;;;;;3.92;1.73;;;;;;;16.14;45.28;100189.38;4955975;28;20027;-69
2021/04/23 09:21:14;;;;;;;4.20;1.90;;;;;;;16.29;44.17;100188.06;4954966;28;20034;-70
2021/04/23 09:23:53;;;;;;;3.58;2.10;;;;;;;16.43;43.06;100188.75;4954302;28;20019;-70
2021/04/23 09:26:38;;;;;;;2.97;1.67;;;;;;;16.56;42.86;100192.47;4954393;28;20030;-71
2021/04/23 09:29:20;;;;;;;3.30;2.05;;;;;;;16.67;42.38;100193.75;4955795;28;20047;-71
2021/04/23 09:31:45;;;;;;;6.22;2.42;;;;;;;16.71;41.74;100180.13;4954640;29;20034;-71
2021/04/23 09:34:11;;;;;;;2.65;1.80;;;;;;;16.92;41.79;100190.50;4956188;28;20015;-69
2021/04/23 09:36:45;;;;;;;4.68;2.10;;;;;;;17.01;41.70;100199.59;4955725;28;20027;-69
2021/04/23 09:39:15;;;;;;;3.72;2.00;;;;;;;17.09;41.28;100198.75;4955864;28;20019;-71
2021/04/23 09:41:44;;;;;;;6.38;2.10;;;;;;;17.15;40.76;100194.69;4957291;28;20031;-71
2021/04/23 09:44:24;;;;;;;2.72;1.88;;;;;;;17.29;40.53;100200.00;4955617;28;20108;-71
2021/04/23 09:46:57;;;;;;;2.78;2.00;;;;;;;17.18;40.54;100171.19;4955978;28;20027;-70
2021/04/23 09:49:23;;;;;;;4.88;1.90;;;;;;;17.39;40.48;100187.81;4953521;28;20022;-70
2021/04/23 09:51:48;;;;;;;4.22;2.03;;;;;;;17.46;40.28;100204.63;4955879;28;20042;-69
2021/04/23 09:54:22;;;;;;;6.10;1.95;;;;;;;17.54;40.63;100200.25;4955636;28;20031;-70
2021/04/23 09:56:49;;;;;;;3.75;2.13;;;;;;;17.58;40.17;100192.13;4959997;28;20041;-70
2021/04/23 09:59:17;;;;;;;2.33;1.90;;;;;;;17.66;40.45;100183.00;4956594;28;20081;-69
2021/04/23 10:01:53;;;;;;;2.55;1.90;;;;;;;17.75;40.57;100191.22;4959260;28;20027;-70
2021/04/23 10:04:29;;;;;;;4.90;1.70;;;;;;;17.83;40.26;100184.84;4960038;28;20035;-70
2021/04/23 10:07:20;;;;;;;4.55;1.70;;;;;;;17.81;39.65;100172.53;4960732;28;20127;-70
2021/04/23 10:09:46;;;;;;;3.10;1.70;;;;;;;17.97;39.36;100190.16;4958542;28;20031;-70
2021/04/23 10:12:12;;;;;;;4.85;2.00;;;;;;;18.04;39.05;100176.63;4959104;28;20070;-69
2021/04/23 10:14:37;;;;;;;6.13;1.90;;;;;;;18.00;39.17;100156.41;4958478;29;20027;-69
2021/04/23 10:17:03;;;;;;;2.60;1.90;;;;;;;18.19;38.86;100179.94;4962017;28;20023;-71
2021/04/23 10:19:28;;;;;;;2.40;1.58;;;;;;;18.25;38.46;100184.13;4959379;28;20035;-70
2021/04/23 10:21:54;;;;;;;4.95;1.88;;;;;;;18.29;38.18;100174.03;4961264;28;20029;-71
2021/04/23 10:24:22;;;;;;;2.97;1.73;;;;;;;18.37;38.08;100181.44;4958790;28;20498;-70
2021/04/23 10:26:51;;;;;;;4.07;1.70;;;;;;;18.46;37.66;100186.91;4960451;28;20038;-70
2021/04/23 10:29:17;;;;;;;3.95;2.30;;;;;;;18.54;37.80;100187.97;4956332;29;20086;-70
2021/04/23 10:31:43;;;;;;;6.82;1.85;;;;;;;18.61;37.24;100165.34;4957375;29;20035;-70
2021/04/23 10:34:09;;;;;;;6.75;3.20;;;;;;;18.60;37.11;100159.00;4957924;29;20039;-71
2021/04/23 10:36:38;;;;;;;3.75;1.95;;;;;;;18.77;37.17;100173.78;4967164;28;20099;-70
2021/04/23 10:39:06;;;;;;;5.53;2.33;;;;;;;18.82;37.03;100166.09;4959736;28;20030;-71
2021/04/23 10:41:36;;;;;;;2.55;1.80;;;;;;;18.90;36.18;100163.59;4959685;28;20035;-71
2021/04/23 10:44:03;;;;;;;3.15;1.80;;;;;;;18.95;36.05;100153.16;4959451;28;20030;-71
2021/04/23 10:46:29;;;;;;;3.40;1.70;;;;;;;19.02;35.62;100156.16;4965051;28;20034;-70
2021/04/23 10:49:04;;;;;;;2.63;1.70;;;;;;;19.11;35.34;100149.75;4959192;28;20031;-70
2021/04/23 10:51:29;;;;;;;5.13;1.90;;;;;;;19.15;35.74;100157.00;4967407;28;20040;-70
2021/04/23 10:54:06;;;;;;;9.02;2.10;;;;;;;19.24;35.06;100148.63;4973901;28;20083;-71
2021/04/23 10:56:39;;;;;;;2.80;1.50;;;;;;;19.26;34.72;100143.53;4955814;28;20026;-71
2021/04/23 10:59:31;;;;;;;5.25;1.40;;;;;;;19.34;34.33;100152.88;4959137;28;20023;-70
2021/04/23 11:02:17;;;;;;;3.30;1.67;;;;;;;19.40;34.17;100147.94;4959639;28;20415;-70
2021/04/23 11:04:56;;;;;;;2.35;1.38;;;;;;;19.45;34.30;100147.72;4959700;28;20037;-71
2021/04/23 11:07:21;;;;;;;4.70;1.60;;;;;;;19.51;34.33;100143.56;4959799;28;20065;-70
2021/04/23 11:10:01;;;;;;;2.25;1.50;;;;;;;19.60;33.82;100146.22;4957849;28;20031;-69
2021/04/23 11:12:27;;;;;;;5.18;3.47;;;;;;;19.63;33.83;100134.44;4958685;28;20397;-69
2021/04/23 11:15:10;;;;;;;3.92;1.70;;;;;;;19.70;33.73;100134.69;4958821;28;20027;-70
2021/04/23 11:17:36;;;;;;;2.78;1.70;;;;;;;19.74;34.04;100132.84;4963111;28;20069;-70
2021/04/23 11:20:22;;;;;;;3.85;1.70;;;;;;;19.84;33.69;100137.09;4967164;28;20117;-71
2021/04/23 11:22:53;;;;;;;4.07;1.50;;;;;;;19.88;33.17;100140.81;4959705;28;20357;-71
2021/04/23 11:25:20;;;;;;;1.98;1.42;;;;;;;19.81;32.37;100108.16;4959259;28;20034;-71
2021/04/23 11:28:08;;;;;;;2.03;1.27;;;;;;;20.00;32.51;100120.63;4958817;28;20464;-71